Le Lyrial — FIRS — position and weather

sailwx.info

Track history (hours):
 
Tides and Currents Weather Stations Pressure Air Temp Water Temp Dewpoint Dewpoint Depression Visibility Wind Speed Wind Dir Waves Ship Positions

Le Lyrial

Last reported at 2018-Jun-20 18:06 UTC. Time now 2018-Jun-25 11:50 UTC.
Position N 37°55' E 015°42'.

Length 142 m; draft 5 m.

Type: Passenger vessel. MMSI: 578000800.

Date/timePositionNaut miles runAvg speedWind from/ knotsBaromVisibWave heightAir tempDewpointWater temp
2018-Jun-20 18:06N 37°55' E 015°42'14 9.5
2018-Jun-20 16:40N 38°07' E 015°35'212.7
2018-Jun-20 16:30N 38°09' E 015°35'3 0.2
2018-Jun-20 05:47N 38°12' E 015°33'1 2.7
2018-Jun-20 05:29N 38°12' E 015°34'711.8
2018-Jun-20 04:51N 38°18' E 015°40'614.9
2018-Jun-20 04:27N 38°23' E 015°36'11713.9
2018-Jun-19 19:59N 40°09' E 014°30'714.0
2018-Jun-19 19:30N 40°15' E 014°27'714.2
2018-Jun-19 19:00N 40°22' E 014°23'714.5
2018-Jun-19 18:30N 40°28' E 014°19'714.2
2018-Jun-19 18:00N 40°35' E 014°16'713.8
2018-Jun-19 17:30N 40°41' E 014°22'714.3
2018-Jun-19 17:00N 40°47' E 014°17'3 6.9
2018-Jun-19 16:30N 40°50' E 014°16'0 0.0
2018-Jun-19 16:00N 40°50' E 014°16'0 0.0
2018-Jun-19 15:30N 40°50' E 014°16'0 0.0
2018-Jun-19 15:00N 40°50' E 014°16'0 0.0
2018-Jun-19 14:30N 40°50' E 014°16'0 0.0
2018-Jun-19 14:00N 40°50' E 014°16'0 0.0
2018-Jun-19 13:30N 40°50' E 014°16'0 0.0
2018-Jun-19 13:00N 40°50' E 014°16'0 0.0
2018-Jun-19 12:30N 40°50' E 014°16'0 0.0
2018-Jun-19 12:00N 40°50' E 014°16'0 0.0
2018-Jun-19 11:30N 40°50' E 014°16'0 0.0
2018-Jun-19 11:00N 40°50' E 014°16'0 0.0
2018-Jun-19 10:30N 40°50' E 014°16'0 0.0
2018-Jun-19 10:00N 40°50' E 014°16'0 0.0
2018-Jun-19 09:27N 40°50' E 014°16'0 0.0
2018-Jun-19 09:00N 40°50' E 014°16'0 0.0
2018-Jun-19 08:30N 40°50' E 014°16'0 0.0
2018-Jun-19 08:00N 40°50' E 014°16'0 0.0
2018-Jun-19 07:30N 40°50' E 014°16'0 0.0
2018-Jun-19 07:00N 40°50' E 014°16'0 0.0
2018-Jun-19 06:24N 40°50' E 014°16'0 0.2
2018-Jun-19 06:00N 40°50' E 014°16'2 3.1
2018-Jun-19 05:30N 40°49' E 014°17'510.9
2018-Jun-19 05:00N 40°45' E 014°12'612.1
2018-Jun-19 04:30N 40°41' E 014°06'611.6
2018-Jun-19 04:00N 40°39' E 013°59'612.1
2018-Jun-19 03:30N 40°39' E 013°51'713.5
2018-Jun-19 03:00N 40°43' E 013°44'713.7
2018-Jun-19 02:30N 40°47' E 013°37'713.8
2018-Jun-19 01:59N 40°52' E 013°29'713.7
2018-Jun-19 01:29N 40°56' E 013°22'813.7
2018-Jun-19 00:55N 41°00' E 013°14'613.6
2018-Jun-19 00:29N 41°04' E 013°07'104 4.5
2018-Jun-18 01:37N 41°54' E 011°06'110.8
2018-Jun-18 01:31N 41°53' E 011°04'127 4.8
2018-Jun-16 23:08N 42°16' E 008°15'213.5
2018-Jun-16 22:58N 42°18' E 008°14'613.6
2018-Jun-16 22:31N 42°24' E 008°10'713.7
2018-Jun-16 22:01N 42°30' E 008°06'713.5
2018-Jun-16 21:31N 42°36' E 008°02'713.3
2018-Jun-16 21:00N 42°42' E 007°58'713.0
2018-Jun-16 20:30N 42°48' E 007°54'713.1
2018-Jun-16 19:59N 42°54' E 007°49'1013.3
2018-Jun-16 19:16N 43°03' E 007°44'313.4
2018-Jun-16 19:00N 43°06' E 007°41'713.4
2018-Jun-16 18:30N 43°12' E 007°37'713.4
2018-Jun-16 17:59N 43°18' E 007°33'713.7
2018-Jun-16 17:30N 43°24' E 007°29'714.1
2018-Jun-16 17:00N 43°30' E 007°24'714.2
2018-Jun-16 16:30N 43°36' E 007°20'5 0.4
2018-Jun-16 04:13N 43°41' E 007°17'413.7
2018-Jun-16 03:56N 43°37' E 007°15'613.7
2018-Jun-16 03:30N 43°32' E 007°10'713.4
2018-Jun-16 03:00N 43°27' E 007°04'713.5
2018-Jun-16 02:30N 43°22' E 006°58'713.6
2018-Jun-16 02:00N 43°17' E 006°52'713.4
2018-Jun-16 01:30N 43°12' E 006°46'713.6
2018-Jun-16 01:00N 43°07' E 006°39'713.6
2018-Jun-16 00:30N 43°01' E 006°34'11113.8
2018-Jun-15 16:29N 43°19' E 004°04'714.9
2018-Jun-15 16:01N 43°21' E 003°55'914.2
2018-Jun-15 15:23N 43°24' E 003°44'2 0.2
2018-Jun-15 04:49N 43°23' E 003°45'13612.7
2018-Jun-14 18:07N 41°22' E 002°19'114.2
2018-Jun-14 18:00N 41°22' E 002°17'5 8.9
2018-Jun-14 17:30N 41°22' E 002°11'0 0.0
2018-Jun-14 04:36N 41°22' E 002°11'0 2.8
2018-Jun-14 04:31N 41°22' E 002°11'4 7.1
2018-Jun-14 04:00N 41°21' E 002°16'13713.0
2018-Jun-13 17:30N 43°21' E 003°44'3 0.2
2018-Jun-13 05:18N 43°23' E 003°47'612.8
2018-Jun-13 04:49N 43°22' E 003°55'413.5
2018-Jun-13 04:29N 43°21' E 004°01'13012.7
2018-Jun-12 18:16N 43°23' E 006°59'313.2
2018-Jun-12 18:00N 43°26' E 007°03'612.9
2018-Jun-12 17:30N 43°31' E 007°08'611.2
2018-Jun-12 16:58N 43°36' E 007°13'6 0.5
2018-Jun-12 04:29N 43°41' E 007°17'612.6
2018-Jun-12 04:00N 43°35' E 007°21'1013.7
2018-Jun-12 03:15N 43°26' E 007°27'5613.7
2018-Jun-11 23:12N 42°36' E 008°02'313.7
2018-Jun-11 23:00N 42°34' E 008°03'713.8
2018-Jun-11 22:30N 42°28' E 008°08'101 4.6
2018-Jun-11 00:43N 41°35' E 010°03'611.3
2018-Jun-11 00:14N 41°37' E 010°09'311.4
2018-Jun-10 23:59N 41°38' E 010°13'611.6
2018-Jun-10 23:30N 41°40' E 010°20'2911.0
2018-Jun-10 20:53N 41°51' E 010°56'410.8
2018-Jun-10 20:29N 41°53' E 011°01'610.7
2018-Jun-10 19:53N 41°56' E 011°09'810.7
2018-Jun-10 19:11N 41°59' E 011°18'310.6
2018-Jun-10 18:56N 41°60' E 011°21'  
Track history (hours):
 
Tides and Currents Weather Stations Pressure Air Temp Water Temp Dewpoint Dewpoint Depression Visibility Wind Speed Wind Dir Waves Ship Positions

Le Lyrial

Last reported at 2018-Jun-20 18:06 UTC. Time now 2018-Jun-25 11:50 UTC.
Position N 37°55' E 015°42'.

Length 142 m; draft 5 m.

Type: Passenger vessel. MMSI: 578000800.

Date/timePositionNaut miles runAvg speedWind from/ knotsBaromVisibWave heightAir tempDewpointWater temp
2018-Jun-20 18:06N 37°55' E 015°42'14 9.5
2018-Jun-20 16:40N 38°07' E 015°35'212.7
2018-Jun-20 16:30N 38°09' E 015°35'3 0.2
2018-Jun-20 05:47N 38°12' E 015°33'1 2.7
2018-Jun-20 05:29N 38°12' E 015°34'711.8
2018-Jun-20 04:51N 38°18' E 015°40'614.9
2018-Jun-20 04:27N 38°23' E 015°36'11713.9
2018-Jun-19 19:59N 40°09' E 014°30'714.0
2018-Jun-19 19:30N 40°15' E 014°27'714.2
2018-Jun-19 19:00N 40°22' E 014°23'714.5
2018-Jun-19 18:30N 40°28' E 014°19'714.2
2018-Jun-19 18:00N 40°35' E 014°16'713.8
2018-Jun-19 17:30N 40°41' E 014°22'714.3
2018-Jun-19 17:00N 40°47' E 014°17'3 6.9
2018-Jun-19 16:30N 40°50' E 014°16'0 0.0
2018-Jun-19 16:00N 40°50' E 014°16'0 0.0
2018-Jun-19 15:30N 40°50' E 014°16'0 0.0
2018-Jun-19 15:00N 40°50' E 014°16'0 0.0
2018-Jun-19 14:30N 40°50' E 014°16'0 0.0
2018-Jun-19 14:00N 40°50' E 014°16'0 0.0
2018-Jun-19 13:30N 40°50' E 014°16'0 0.0
2018-Jun-19 13:00N 40°50' E 014°16'0 0.0
2018-Jun-19 12:30N 40°50' E 014°16'0 0.0
2018-Jun-19 12:00N 40°50' E 014°16'0 0.0
2018-Jun-19 11:30N 40°50' E 014°16'0 0.0
2018-Jun-19 11:00N 40°50' E 014°16'0 0.0
2018-Jun-19 10:30N 40°50' E 014°16'0 0.0
2018-Jun-19 10:00N 40°50' E 014°16'0 0.0
2018-Jun-19 09:27N 40°50' E 014°16'0 0.0
2018-Jun-19 09:00N 40°50' E 014°16'0 0.0
2018-Jun-19 08:30N 40°50' E 014°16'0 0.0
2018-Jun-19 08:00N 40°50' E 014°16'0 0.0
2018-Jun-19 07:30N 40°50' E 014°16'0 0.0
2018-Jun-19 07:00N 40°50' E 014°16'0 0.0
2018-Jun-19 06:24N 40°50' E 014°16'0 0.2
2018-Jun-19 06:00N 40°50' E 014°16'2 3.1
2018-Jun-19 05:30N 40°49' E 014°17'510.9
2018-Jun-19 05:00N 40°45' E 014°12'612.1
2018-Jun-19 04:30N 40°41' E 014°06'611.6
2018-Jun-19 04:00N 40°39' E 013°59'612.1
2018-Jun-19 03:30N 40°39' E 013°51'713.5
2018-Jun-19 03:00N 40°43' E 013°44'713.7
2018-Jun-19 02:30N 40°47' E 013°37'713.8
2018-Jun-19 01:59N 40°52' E 013°29'713.7
2018-Jun-19 01:29N 40°56' E 013°22'813.7
2018-Jun-19 00:55N 41°00' E 013°14'613.6
2018-Jun-19 00:29N 41°04' E 013°07'104 4.5
2018-Jun-18 01:37N 41°54' E 011°06'110.8
2018-Jun-18 01:31N 41°53' E 011°04'127 4.8
2018-Jun-16 23:08N 42°16' E 008°15'213.5
2018-Jun-16 22:58N 42°18' E 008°14'613.6
2018-Jun-16 22:31N 42°24' E 008°10'713.7
2018-Jun-16 22:01N 42°30' E 008°06'713.5
2018-Jun-16 21:31N 42°36' E 008°02'713.3
2018-Jun-16 21:00N 42°42' E 007°58'713.0
2018-Jun-16 20:30N 42°48' E 007°54'713.1
2018-Jun-16 19:59N 42°54' E 007°49'1013.3
2018-Jun-16 19:16N 43°03' E 007°44'313.4
2018-Jun-16 19:00N 43°06' E 007°41'713.4
2018-Jun-16 18:30N 43°12' E 007°37'713.4
2018-Jun-16 17:59N 43°18' E 007°33'713.7
2018-Jun-16 17:30N 43°24' E 007°29'714.1
2018-Jun-16 17:00N 43°30' E 007°24'714.2
2018-Jun-16 16:30N 43°36' E 007°20'5 0.4
2018-Jun-16 04:13N 43°41' E 007°17'413.7
2018-Jun-16 03:56N 43°37' E 007°15'613.7
2018-Jun-16 03:30N 43°32' E 007°10'713.4
2018-Jun-16 03:00N 43°27' E 007°04'713.5
2018-Jun-16 02:30N 43°22' E 006°58'713.6
2018-Jun-16 02:00N 43°17' E 006°52'713.4
2018-Jun-16 01:30N 43°12' E 006°46'713.6
2018-Jun-16 01:00N 43°07' E 006°39'713.6
2018-Jun-16 00:30N 43°01' E 006°34'11113.8
2018-Jun-15 16:29N 43°19' E 004°04'714.9
2018-Jun-15 16:01N 43°21' E 003°55'914.2
2018-Jun-15 15:23N 43°24' E 003°44'2 0.2
2018-Jun-15 04:49N 43°23' E 003°45'13612.7
2018-Jun-14 18:07N 41°22' E 002°19'114.2
2018-Jun-14 18:00N 41°22' E 002°17'5 8.9
2018-Jun-14 17:30N 41°22' E 002°11'0 0.0
2018-Jun-14 04:36N 41°22' E 002°11'0 2.8
2018-Jun-14 04:31N 41°22' E 002°11'4 7.1
2018-Jun-14 04:00N 41°21' E 002°16'13713.0
2018-Jun-13 17:30N 43°21' E 003°44'3 0.2
2018-Jun-13 05:18N 43°23' E 003°47'612.8
2018-Jun-13 04:49N 43°22' E 003°55'413.5
2018-Jun-13 04:29N 43°21' E 004°01'13012.7
2018-Jun-12 18:16N 43°23' E 006°59'313.2
2018-Jun-12 18:00N 43°26' E 007°03'612.9
2018-Jun-12 17:30N 43°31' E 007°08'611.2
2018-Jun-12 16:58N 43°36' E 007°13'6 0.5
2018-Jun-12 04:29N 43°41' E 007°17'612.6
2018-Jun-12 04:00N 43°35' E 007°21'1013.7
2018-Jun-12 03:15N 43°26' E 007°27'5613.7
2018-Jun-11 23:12N 42°36' E 008°02'313.7
2018-Jun-11 23:00N 42°34' E 008°03'713.8
2018-Jun-11 22:30N 42°28' E 008°08'101 4.6
2018-Jun-11 00:43N 41°35' E 010°03'611.3
2018-Jun-11 00:14N 41°37' E 010°09'311.4
2018-Jun-10 23:59N 41°38' E 010°13'611.6
2018-Jun-10 23:30N 41°40' E 010°20'2911.0
2018-Jun-10 20:53N 41°51' E 010°56'410.8
2018-Jun-10 20:29N 41°53' E 011°01'610.7
2018-Jun-10 19:53N 41°56' E 011°09'810.7
2018-Jun-10 19:11N 41°59' E 011°18'310.6
2018-Jun-10 18:56N 41°60' E 011°21'  

Dump ship's entire track history